createdAt,value
2022-09-30T00:01:26.111Z,94636.72
2022-09-30T00:03:57.826Z,94647.47
2022-09-30T00:06:30.982Z,94652.97
2022-09-30T00:08:58.506Z,94646.69
2022-09-30T00:11:31.227Z,94651.13
2022-09-30T00:13:58.399Z,94660.78
2022-09-30T00:16:28.518Z,94674.66
2022-09-30T00:18:57.776Z,94667.06
2022-09-30T00:21:25.519Z,94660.78
2022-09-30T00:28:55.047Z,94658.00
2022-09-30T00:31:23.588Z,94664.28
2022-09-30T00:34:08.849Z,94672.13
2022-09-30T00:36:51.298Z,94671.09
2022-09-30T00:39:21.748Z,94668.47
2022-09-30T00:41:52.128Z,94666.38
2022-09-30T00:44:51.914Z,94667.47
2022-09-30T00:47:36.874Z,94662.22
2022-09-30T00:50:06.632Z,94664.81
2022-09-30T00:52:34.561Z,94655.91
2022-09-30T00:55:04.698Z,94650.63
2022-09-30T00:57:31.472Z,94663.19
2022-09-30T00:59:58.426Z,94654.28
2022-09-30T01:02:25.213Z,94653.22
2022-09-30T01:04:55.056Z,94650.84
2022-09-30T01:07:23.502Z,94660.53
2022-09-30T01:09:51.195Z,94661.31
2022-09-30T01:12:23.063Z,94658.84
2022-09-30T01:14:53.564Z,94666.69
2022-09-30T01:17:35.949Z,94670.81
2022-09-30T01:20:30.583Z,94664.00
2022-09-30T01:23:28.388Z,94659.47
2022-09-30T01:26:05.016Z,94649.75
2022-09-30T01:28:37.640Z,94653.31
2022-09-30T01:31:45.875Z,94656.47
2022-09-30T01:35:00.266Z,94648.09
2022-09-30T01:37:53.859Z,94654.28
2022-09-30T01:40:55.639Z,94648.50
2022-09-30T01:43:49.811Z,94628.44
2022-09-30T01:46:44.543Z,94651.41
2022-09-30T01:49:25.699Z,94652.53
2022-09-30T01:52:13.392Z,94649.56
2022-09-30T01:54:47.737Z,94650.88
2022-09-30T01:57:40.537Z,94659.25
2022-09-30T02:00:10.891Z,94656.38
2022-09-30T02:02:49.877Z,94660.84
2022-09-30T02:05:35.232Z,94664.47
2022-09-30T02:08:05.797Z,94646.59
2022-09-30T02:10:44.994Z,94663.88
2022-09-30T02:13:23.944Z,94669.56
2022-09-30T02:15:57.998Z,94671.66
2022-09-30T02:18:39.327Z,94662.50
2022-09-30T02:21:10.431Z,94659.59
2022-09-30T02:23:42.643Z,94666.34
2022-09-30T02:26:18.899Z,94672.03
2022-09-30T02:28:56.099Z,94668.28
2022-09-30T02:31:26.766Z,94672.91
2022-09-30T02:34:00.520Z,94672.91
2022-09-30T02:36:33.414Z,94672.28
2022-09-30T02:39:06.000Z,94668.50
2022-09-30T02:41:40.393Z,94659.81
2022-09-30T02:44:07.580Z,94663.38
2022-09-30T02:46:41.331Z,94664.13
2022-09-30T02:49:11.125Z,94664.59
2022-09-30T02:52:01.112Z,94671.06
2022-09-30T02:55:11.126Z,94680.72
2022-09-30T02:57:37.903Z,94683.88
2022-09-30T03:00:09.064Z,94672.59
2022-09-30T03:02:38.634Z,94679.63
2022-09-30T03:05:05.895Z,94692.59
2022-09-30T03:07:34.198Z,94689.44
2022-09-30T03:10:01.277Z,94694.19
2022-09-30T03:12:33.720Z,94683.91
2022-09-30T03:15:25.656Z,94690.88
2022-09-30T03:17:58.268Z,94693.41
2022-09-30T03:20:45.092Z,94683.06
2022-09-30T03:23:44.277Z,94694.22
2022-09-30T03:26:13.719Z,94689.00
2022-09-30T03:29:09.576Z,94688.19
2022-09-30T03:31:54.901Z,94692.63
2022-09-30T03:34:33.232Z,94693.09
2022-09-30T03:37:23.887Z,94683.16
2022-09-30T03:40:10.220Z,94682.22
2022-09-30T03:42:38.105Z,94687.09
2022-09-30T03:45:11.781Z,94688.13
2022-09-30T03:47:47.526Z,94685.06
2022-09-30T03:50:19.033Z,94697.03
2022-09-30T03:52:46.847Z,94689.06
2022-09-30T03:55:14.581Z,94684.09
2022-09-30T03:57:42.894Z,94695.00
2022-09-30T04:00:12.550Z,94712.13
2022-09-30T04:02:39.579Z,94700.91
2022-09-30T04:05:07.156Z,94710.16
2022-09-30T04:07:34.631Z,94715.22
2022-09-30T04:10:01.585Z,94715.69
2022-09-30T04:12:28.396Z,94718.38
2022-09-30T04:14:55.178Z,94712.69
2022-09-30T04:17:22.263Z,94713.81
2022-09-30T04:19:49.966Z,94716.19
2022-09-30T04:22:16.712Z,94733.25
2022-09-30T04:24:43.985Z,94731.72
2022-09-30T04:27:10.794Z,94737.03
2022-09-30T04:29:37.539Z,94722.47
2022-09-30T04:32:04.574Z,94735.13
2022-09-30T04:34:31.346Z,94734.16
2022-09-30T04:36:58.087Z,94732.06
2022-09-30T04:39:24.889Z,94734.81
2022-09-30T04:41:54.060Z,94714.66
2022-09-30T04:44:21.802Z,94719.31
2022-09-30T04:46:48.780Z,94724.13
2022-09-30T04:49:15.594Z,94738.34
2022-09-30T04:51:46.037Z,94739.97
2022-09-30T04:54:13.407Z,94746.84
2022-09-30T04:56:40.280Z,94751.06
2022-09-30T04:59:07.198Z,94759.44
2022-09-30T05:01:34.249Z,94763.72
2022-09-30T05:04:01.636Z,94768.34
2022-09-30T05:06:28.996Z,94785.00
2022-09-30T05:08:55.722Z,94769.94
2022-09-30T05:11:22.748Z,94768.44
2022-09-30T05:13:51.177Z,94785.81
2022-09-30T05:16:18.661Z,94790.06
2022-09-30T05:18:46.216Z,94763.97
2022-09-30T05:21:20.766Z,94774.16
2022-09-30T05:23:48.370Z,94773.50
2022-09-30T05:26:15.395Z,94768.09
2022-09-30T05:28:42.820Z,94781.81
2022-09-30T05:31:12.587Z,94783.69
2022-09-30T05:33:40.441Z,94786.66
2022-09-30T05:42:38.017Z,94800.25
2022-09-30T05:45:06.701Z,94812.69
2022-09-30T05:47:34.127Z,94804.91
2022-09-30T05:50:00.887Z,94806.88
2022-09-30T05:52:28.435Z,94807.22
2022-09-30T05:54:56.417Z,94824.75
2022-09-30T05:57:23.182Z,94829.56
2022-09-30T05:59:51.416Z,94820.91
2022-09-30T06:02:18.199Z,94832.97
2022-09-30T06:04:44.947Z,94828.81
2022-09-30T06:07:11.774Z,94821.56
2022-09-30T06:09:38.470Z,94819.56
2022-09-30T06:12:06.271Z,94829.50
2022-09-30T06:14:33.020Z,94844.22
2022-09-30T06:17:03.276Z,94847.47
2022-09-30T06:19:30.409Z,94858.34
2022-09-30T06:21:58.715Z,94861.69
2022-09-30T06:24:25.923Z,94860.81
2022-09-30T06:26:52.795Z,94856.94
2022-09-30T06:29:19.722Z,94837.69
2022-09-30T06:31:46.618Z,94849.41
2022-09-30T06:34:13.850Z,94846.34
2022-09-30T06:36:40.692Z,94839.09
2022-09-30T06:39:12.823Z,94832.31
2022-09-30T06:41:42.534Z,94843.16
2022-09-30T06:44:10.125Z,94850.81
2022-09-30T06:46:47.561Z,94860.28
2022-09-30T06:49:17.865Z,94865.31
2022-09-30T06:51:44.538Z,94855.16
2022-09-30T06:54:11.656Z,94868.34
2022-09-30T06:56:38.490Z,94868.88
2022-09-30T06:59:05.279Z,94865.78
2022-09-30T07:01:32.047Z,94878.38
2022-09-30T07:03:58.799Z,94891.00
2022-09-30T07:06:26.408Z,94887.38
2022-09-30T07:08:54.270Z,94886.31
2022-09-30T07:11:21.337Z,94877.41
2022-09-30T07:13:49.259Z,94891.06
2022-09-30T07:16:18.917Z,94885.78
2022-09-30T07:18:46.073Z,94897.88
2022-09-30T07:21:16.136Z,94898.94
2022-09-30T07:23:49.933Z,94904.19
2022-09-30T07:26:19.273Z,94895.00
2022-09-30T07:28:46.594Z,94895.00
2022-09-30T07:34:09.164Z,94897.88
2022-09-30T07:36:38.353Z,94900.47
2022-09-30T07:39:08.604Z,94910.47
2022-09-30T07:41:38.867Z,94909.44
2022-09-30T07:44:09.031Z,94926.78
2022-09-30T07:46:39.193Z,94938.31
2022-09-30T07:49:09.059Z,94926.50
2022-09-30T07:51:41.427Z,94925.19
2022-09-30T07:54:12.400Z,94911.53
2022-09-30T07:59:28.350Z,94918.78
2022-09-30T08:01:55.972Z,94934.00
2022-09-30T08:04:24.265Z,94923.94
2022-09-30T08:06:54.372Z,94933.31
2022-09-30T08:09:23.443Z,94924.34
2022-09-30T08:11:51.783Z,94938.50
2022-09-30T08:14:23.294Z,94950.00
2022-09-30T08:16:50.792Z,94947.31
2022-09-30T08:19:20.959Z,94955.09
2022-09-30T08:21:48.800Z,94955.97
2022-09-30T08:24:16.378Z,94955.91
2022-09-30T08:26:44.054Z,94952.13
2022-09-30T08:29:19.966Z,94918.44
2022-09-30T08:31:48.220Z,94949.16
2022-09-30T08:34:15.447Z,94959.03
2022-09-30T08:36:42.418Z,94965.81
2022-09-30T08:39:11.045Z,94960.28
2022-09-30T08:41:53.253Z,94973.03
2022-09-30T08:44:42.440Z,94977.19
2022-09-30T08:47:29.610Z,94980.03
2022-09-30T08:49:56.342Z,94977.06
2022-09-30T08:52:30.501Z,94976.94
2022-09-30T08:55:07.166Z,94969.41
2022-09-30T08:57:45.131Z,94979.88
2022-09-30T09:00:17.982Z,94991.28
2022-09-30T09:02:55.953Z,94996.88
2022-09-30T09:05:52.746Z,94998.66
2022-09-30T09:08:36.754Z,95007.91
2022-09-30T09:11:13.265Z,94995.75
2022-09-30T09:13:50.140Z,95000.56
2022-09-30T09:16:30.239Z,95000.84
2022-09-30T09:19:11.015Z,94998.16
2022-09-30T09:21:53.526Z,94999.34
2022-09-30T09:24:37.660Z,95007.22
2022-09-30T09:27:18.651Z,95009.03
2022-09-30T09:30:01.970Z,94996.16
2022-09-30T09:32:29.839Z,95007.06
2022-09-30T09:35:06.879Z,95009.09
2022-09-30T09:38:02.778Z,95015.28
2022-09-30T09:40:58.803Z,95009.84
2022-09-30T09:43:53.183Z,95016.06
2022-09-30T09:46:51.001Z,95006.72
2022-09-30T09:49:21.158Z,95008.16
2022-09-30T09:51:54.002Z,95013.31
2022-09-30T09:54:22.442Z,95019.59
2022-09-30T09:56:53.067Z,95023.69
2022-09-30T09:59:20.559Z,95012.59
2022-09-30T10:01:53.837Z,95023.06
2022-09-30T10:04:23.781Z,95036.53
2022-09-30T10:06:57.911Z,95036.56
2022-09-30T10:09:29.126Z,95036.38
2022-09-30T10:12:07.934Z,95047.13
2022-09-30T10:14:57.635Z,95040.88
2022-09-30T10:17:30.896Z,95028.91
2022-09-30T10:20:00.760Z,95031.03
2022-09-30T10:22:32.550Z,95026.09
2022-09-30T10:25:14.667Z,95025.28
2022-09-30T10:28:02.110Z,95026.34
2022-09-30T10:30:46.104Z,95026.44
2022-09-30T10:33:27.383Z,95030.88
2022-09-30T10:36:07.337Z,95013.69
2022-09-30T10:38:35.756Z,95011.34
2022-09-30T10:41:04.452Z,95012.91
2022-09-30T10:43:50.250Z,95010.34
2022-09-30T10:46:27.752Z,95012.56
2022-09-30T10:48:56.803Z,95008.13
2022-09-30T10:51:30.355Z,95029.22
2022-09-30T10:53:57.364Z,95021.72
2022-09-30T10:56:44.783Z,95018.44
2022-09-30T10:59:34.812Z,95026.22
2022-09-30T11:05:13.512Z,95019.44
2022-09-30T11:08:05.464Z,95031.41
2022-09-30T11:10:47.376Z,95030.53
2022-09-30T11:13:26.037Z,95027.16
2022-09-30T11:16:11.670Z,95028.16
2022-09-30T11:18:47.543Z,95025.44
2022-09-30T11:21:29.554Z,95018.31
2022-09-30T11:24:14.622Z,95033.28
2022-09-30T11:27:04.723Z,95022.63
2022-09-30T11:29:37.558Z,95023.47
2022-09-30T11:32:25.055Z,95023.41
2022-09-30T11:35:07.190Z,95023.19
2022-09-30T11:37:46.097Z,95030.31
2022-09-30T11:40:24.907Z,95016.56
2022-09-30T11:43:19.887Z,95024.97
2022-09-30T11:45:46.911Z,95029.50
2022-09-30T11:48:41.693Z,95034.53
2022-09-30T11:51:26.819Z,95027.94
2022-09-30T11:54:24.090Z,95038.53
2022-09-30T11:57:14.508Z,95034.44
2022-09-30T12:00:03.232Z,95046.13
2022-09-30T12:02:46.687Z,95022.69
2022-09-30T12:05:36.035Z,95035.13
2022-09-30T12:08:11.790Z,95028.22
2022-09-30T12:11:10.464Z,95028.63
2022-09-30T12:13:45.968Z,95037.63
2022-09-30T12:16:30.309Z,95039.88
2022-09-30T12:19:15.197Z,95044.41
2022-09-30T12:21:53.246Z,95034.78
2022-09-30T12:24:29.415Z,95031.75
2022-09-30T12:26:56.456Z,95043.59
2022-09-30T12:29:45.949Z,95046.94
2022-09-30T12:32:22.972Z,95047.47
2022-09-30T12:35:08.181Z,95029.44
2022-09-30T12:37:46.761Z,95043.38
2022-09-30T12:40:33.333Z,95020.84
2022-09-30T12:43:32.127Z,95042.13
2022-09-30T12:46:17.243Z,95045.13
2022-09-30T12:49:05.104Z,95035.53
2022-09-30T12:51:38.981Z,95040.88
2022-09-30T12:54:15.404Z,95053.75
2022-09-30T12:56:44.411Z,95047.75
2022-09-30T12:59:13.921Z,95052.97
2022-09-30T13:01:42.402Z,95061.75
2022-09-30T13:04:17.508Z,95044.81
2022-09-30T13:06:47.285Z,95045.53
2022-09-30T13:09:17.421Z,95035.31
2022-09-30T13:12:12.518Z,95051.66
2022-09-30T13:14:43.422Z,95050.91
2022-09-30T13:17:13.467Z,95055.25
2022-09-30T13:19:42.983Z,95051.34
2022-09-30T13:22:18.876Z,95056.16
2022-09-30T13:24:58.145Z,95056.03
2022-09-30T13:27:41.168Z,95055.25
2022-09-30T13:30:34.525Z,95055.41
2022-09-30T13:33:02.360Z,95066.00
2022-09-30T13:35:37.611Z,95065.56
2022-09-30T13:38:16.094Z,95062.53
2022-09-30T13:41:02.190Z,95066.16
2022-09-30T13:43:29.328Z,95062.78
2022-09-30T13:45:57.351Z,95069.25
2022-09-30T13:48:36.573Z,95064.41
2022-09-30T13:51:12.566Z,95068.91
2022-09-30T13:53:48.250Z,95071.28
2022-09-30T13:56:26.268Z,95078.06
2022-09-30T13:58:59.571Z,95060.09
2022-09-30T14:01:42.304Z,95069.41
2022-09-30T14:04:11.809Z,95077.19
2022-09-30T14:07:07.530Z,95078.06
2022-09-30T14:10:06.834Z,95070.53
2022-09-30T14:12:56.619Z,95077.94
2022-09-30T14:15:46.976Z,95077.13
2022-09-30T14:18:38.945Z,95083.13
2022-09-30T14:21:44.856Z,95078.97
2022-09-30T14:24:17.524Z,95089.31
2022-09-30T14:26:44.294Z,95090.81
2022-09-30T14:29:38.932Z,95100.22
2022-09-30T14:32:19.181Z,95097.31
2022-09-30T14:37:43.178Z,95104.97
2022-09-30T14:40:15.792Z,95105.94
2022-09-30T14:42:45.522Z,95105.69
2022-09-30T14:45:21.842Z,95101.88
2022-09-30T14:47:52.907Z,95105.63
2022-09-30T14:50:31.328Z,95104.00
2022-09-30T14:53:00.539Z,95113.03
2022-09-30T14:55:33.743Z,95111.84
2022-09-30T14:58:30.728Z,95103.22
2022-09-30T15:01:17.823Z,95118.44
2022-09-30T15:03:51.715Z,95119.03
2022-09-30T15:06:26.199Z,95116.91
2022-09-30T15:09:13.723Z,95122.03
2022-09-30T15:11:41.443Z,95124.38
2022-09-30T15:14:17.758Z,95114.97
2022-09-30T15:16:52.600Z,95110.47
2022-09-30T15:19:22.679Z,95120.50
2022-09-30T15:21:53.333Z,95113.47
2022-09-30T15:24:22.839Z,95118.59
2022-09-30T15:26:53.295Z,95120.59
2022-09-30T15:29:20.186Z,95114.84
2022-09-30T15:31:59.165Z,95112.25
2022-09-30T15:34:28.206Z,95104.81
2022-09-30T15:37:07.947Z,95127.56
2022-09-30T15:39:58.916Z,95127.06
2022-09-30T15:42:44.738Z,95135.47
2022-09-30T15:45:20.138Z,95137.84
2022-09-30T15:47:56.404Z,95144.09
2022-09-30T15:50:56.935Z,95133.63
2022-09-30T15:53:31.293Z,95131.31
2022-09-30T15:56:16.683Z,95144.16
2022-09-30T15:58:58.921Z,95139.56
2022-09-30T16:01:36.268Z,95140.44
2022-09-30T16:04:15.475Z,95134.69
2022-09-30T16:06:49.686Z,95136.00
2022-09-30T16:09:25.491Z,95142.03
2022-09-30T16:12:08.731Z,95141.31
2022-09-30T16:15:03.473Z,95146.50
2022-09-30T16:17:33.546Z,95150.00
2022-09-30T16:20:07.060Z,95151.91
2022-09-30T16:22:35.952Z,95154.53
2022-09-30T16:25:12.013Z,95160.28
2022-09-30T16:27:39.138Z,95161.28
2022-09-30T16:30:06.779Z,95170.78
2022-09-30T16:32:41.864Z,95172.63
2022-09-30T16:35:17.376Z,95169.91
2022-09-30T16:37:44.378Z,95175.38
2022-09-30T16:40:25.161Z,95173.06
2022-09-30T16:42:54.977Z,95169.16
2022-09-30T16:45:22.676Z,95173.25
2022-09-30T16:47:50.566Z,95174.50
2022-09-30T16:50:22.494Z,95176.97
2022-09-30T16:52:49.527Z,95187.00
2022-09-30T16:57:48.056Z,95199.41
2022-09-30T17:00:18.528Z,95198.28
2022-09-30T17:02:47.212Z,95199.38
2022-09-30T17:05:20.061Z,95202.38
2022-09-30T17:07:50.880Z,95202.47
2022-09-30T17:10:28.982Z,95197.84
2022-09-30T17:12:58.647Z,95206.34
2022-09-30T17:15:25.397Z,95203.22
2022-09-30T17:17:53.022Z,95203.75
2022-09-30T17:20:21.097Z,95195.44
2022-09-30T17:22:48.558Z,95202.88
2022-09-30T17:25:15.953Z,95205.06
2022-09-30T17:27:42.829Z,95202.72
2022-09-30T17:30:10.300Z,95204.84
2022-09-30T17:32:37.197Z,95209.41
2022-09-30T17:35:08.072Z,95217.03
2022-09-30T17:37:37.931Z,95213.13
2022-09-30T17:40:26.228Z,95216.31
2022-09-30T17:43:11.176Z,95210.03
2022-09-30T17:45:41.408Z,95216.94
2022-09-30T17:48:09.914Z,95205.88
2022-09-30T17:50:42.324Z,95208.00
2022-09-30T17:53:09.227Z,95209.56
2022-09-30T17:55:36.029Z,95218.84
2022-09-30T17:58:03.339Z,95235.97
2022-09-30T18:00:31.169Z,95236.28
2022-09-30T18:02:58.685Z,95237.06
2022-09-30T18:05:25.913Z,95240.81
2022-09-30T18:07:53.091Z,95248.69
2022-09-30T18:10:20.205Z,95245.03
2022-09-30T18:12:49.574Z,95249.25
2022-09-30T18:15:17.001Z,95248.72
2022-09-30T18:17:44.469Z,95252.94
2022-09-30T18:20:12.131Z,95259.25
2022-09-30T18:22:38.931Z,95261.34
2022-09-30T18:25:22.900Z,95259.78
2022-09-30T18:27:51.498Z,95261.91
2022-09-30T18:30:21.286Z,95261.91
2022-09-30T18:32:49.690Z,95266.63
2022-09-30T18:35:19.992Z,95259.25
2022-09-30T18:37:49.742Z,95269.22
2022-09-30T18:40:22.684Z,95262.91
2022-09-30T18:43:00.284Z,95267.63
2022-09-30T18:45:29.514Z,95265.72
2022-09-30T18:47:58.981Z,95262.00
2022-09-30T18:50:28.340Z,95263.28
2022-09-30T18:52:56.396Z,95262.75
2022-09-30T18:55:24.185Z,95264.31
2022-09-30T18:57:54.898Z,95262.19
2022-09-30T19:00:21.923Z,95263.75
2022-09-30T19:02:48.695Z,95257.34
2022-09-30T19:05:17.292Z,95277.38
2022-09-30T19:07:44.083Z,95277.34
2022-09-30T19:10:13.151Z,95274.69
2022-09-30T19:12:44.645Z,95282.84
2022-09-30T19:15:16.123Z,95276.19
2022-09-30T19:17:43.979Z,95283.25
2022-09-30T19:20:11.509Z,95282.91
2022-09-30T19:22:39.381Z,95272.75
2022-09-30T19:25:08.060Z,95286.53
2022-09-30T19:27:37.842Z,95288.84
2022-09-30T19:30:06.446Z,95275.06
2022-09-30T19:32:36.667Z,95261.03
2022-09-30T19:35:10.795Z,95276.56
2022-09-30T19:37:40.645Z,95280.22
2022-09-30T19:40:21.053Z,95274.69
2022-09-30T19:42:50.172Z,95281.81
2022-09-30T19:45:22.247Z,95282.81
2022-09-30T19:47:50.919Z,95288.06
2022-09-30T19:50:17.700Z,95275.38
2022-09-30T19:52:54.387Z,95280.97
2022-09-30T19:55:24.562Z,95277.56
2022-09-30T19:57:54.310Z,95272.53
2022-09-30T20:00:21.706Z,95255.91
2022-09-30T20:02:50.797Z,95274.97
2022-09-30T20:05:18.478Z,95274.97
2022-09-30T20:07:45.542Z,95272.31
2022-09-30T20:10:12.794Z,95253.31
2022-09-30T20:12:42.384Z,95252.22
2022-09-30T20:15:28.703Z,95264.91
2022-09-30T20:18:00.432Z,95273.91
2022-09-30T20:20:37.431Z,95255.00
2022-09-30T20:23:04.767Z,95258.75
2022-09-30T20:25:32.193Z,95258.75
2022-09-30T20:28:00.355Z,95259.75
2022-09-30T20:30:29.990Z,95261.03
2022-09-30T20:32:56.978Z,95270.25
2022-09-30T20:35:24.580Z,95294.56
2022-09-30T20:37:54.362Z,95295.94
2022-09-30T20:40:21.393Z,95279.72
2022-09-30T20:42:48.364Z,95308.78
2022-09-30T20:45:18.253Z,95304.84
2022-09-30T20:47:45.775Z,95297.91
2022-09-30T20:50:13.062Z,95320.47
2022-09-30T20:52:40.052Z,95307.28
2022-09-30T20:55:09.879Z,95291.75
2022-09-30T20:57:36.834Z,95288.56
2022-09-30T21:00:04.724Z,95308.56
2022-09-30T21:02:31.578Z,95299.22
2022-09-30T21:04:58.551Z,95300.50
2022-09-30T21:07:26.326Z,95318.75
2022-09-30T21:09:53.775Z,95315.44
2022-09-30T21:12:20.593Z,95316.09
2022-09-30T21:14:47.604Z,95319.66
2022-09-30T21:17:14.776Z,95280.72
2022-09-30T21:19:41.506Z,95297.38
2022-09-30T21:22:08.484Z,95313.88
2022-09-30T21:24:35.319Z,95312.91
2022-09-30T21:27:05.964Z,95326.56
2022-09-30T21:29:33.600Z,95332.84
2022-09-30T21:32:00.635Z,95332.13
2022-09-30T21:34:27.676Z,95338.75
2022-09-30T21:36:54.498Z,95351.59
2022-09-30T21:39:21.343Z,95353.31
2022-09-30T21:41:48.976Z,95346.91
2022-09-30T21:44:30.156Z,95347.72
2022-09-30T21:46:58.460Z,95344.38
2022-09-30T21:49:25.520Z,95346.53
2022-09-30T21:51:55.898Z,95347.16
2022-09-30T21:54:23.460Z,95349.22
2022-09-30T21:56:50.452Z,95341.75
2022-09-30T21:59:17.290Z,95360.06
2022-09-30T22:01:44.249Z,95349.94
2022-09-30T22:04:11.060Z,95351.53
2022-09-30T22:06:38.058Z,95331.25
2022-09-30T22:09:05.400Z,95336.78
2022-09-30T22:11:33.161Z,95334.09
2022-09-30T22:14:00.665Z,95334.09
2022-09-30T22:16:35.109Z,95346.44
2022-09-30T22:19:04.815Z,95337.06
2022-09-30T22:21:34.288Z,95351.50
2022-09-30T22:24:03.007Z,95359.19
2022-09-30T22:26:31.923Z,95349.44
2022-09-30T22:29:08.519Z,95356.13
2022-09-30T22:31:35.637Z,95371.34
2022-09-30T22:34:24.523Z,95379.97
2022-09-30T22:37:10.907Z,95369.75
2022-09-30T22:39:37.733Z,95385.91
2022-09-30T22:42:04.615Z,95377.59
2022-09-30T22:44:36.848Z,95382.28
2022-09-30T22:47:04.464Z,95387.50
2022-09-30T22:49:34.437Z,95390.19
2022-09-30T22:52:04.654Z,95401.13
2022-09-30T22:54:31.623Z,95364.28
2022-09-30T22:57:01.151Z,95375.03
2022-09-30T22:59:29.465Z,95373.34
2022-09-30T23:01:58.750Z,95397.66
2022-09-30T23:04:26.804Z,95393.09
2022-09-30T23:06:55.607Z,95379.84
2022-09-30T23:09:23.004Z,95392.00
2022-09-30T23:11:53.698Z,95369.28
2022-09-30T23:14:22.226Z,95386.31
2022-09-30T23:16:49.633Z,95379.97
2022-09-30T23:19:16.508Z,95379.97
2022-09-30T23:21:43.534Z,95387.22
2022-09-30T23:24:10.856Z,95386.53
2022-09-30T23:26:37.824Z,95401.31
2022-09-30T23:29:07.494Z,95395.41
2022-09-30T23:31:34.958Z,95408.47
2022-09-30T23:34:04.091Z,95402.34
2022-09-30T23:36:33.139Z,95397.22
2022-09-30T23:39:08.408Z,95402.47
2022-09-30T23:41:35.686Z,95412.47
2022-09-30T23:44:04.429Z,95412.66
2022-09-30T23:46:31.796Z,95403.38
2022-09-30T23:48:58.686Z,95409.03
2022-09-30T23:51:25.494Z,95392.00
2022-09-30T23:53:52.476Z,95400.53
2022-09-30T23:56:20.354Z,95399.28
2022-09-30T23:58:47.982Z,95384.97
